Time;durP1;ratioP1;P1;durP2;ratioP2;P2;SDS_P1;SDS_P2;PMS_P1;PMS_P2;Temp;Humidity;BMP_temperature;BMP_pressure;BME280_temperature;BME280_humidity;BME280_pressure;Samples;Min_cycle;Max_cycle;Signal;HPM_P1;HPM_P2
2023/12/13 00:01:26;;;;;;;12.75;2.70;;;;;;;-7.41;60.43;100197.31;5077853;28;20385;-69
2023/12/13 00:03:54;;;;;;;15.25;2.45;;;;;;;-7.37;60.65;100213.78;5093054;28;20040;-68
2023/12/13 00:06:20;;;;;;;12.77;2.45;;;;;;;-7.46;60.66;100224.19;5092550;28;20031;-71
2023/12/13 00:08:46;;;;;;;17.85;2.70;;;;;;;-7.53;60.53;100212.91;5092378;28;20423;-69
2023/12/13 00:11:11;;;;;;;10.32;2.10;;;;;;;-7.46;60.60;100235.47;5091271;28;20462;-68
2023/12/13 00:13:37;;;;;;;12.88;2.60;;;;;;;-7.45;60.99;100207.72;5074737;28;20032;-69
2023/12/13 00:16:03;;;;;;;12.48;2.28;;;;;;;-7.51;60.71;100214.66;5077570;28;20099;-69
2023/12/13 00:18:29;;;;;;;23.52;2.95;;;;;;;-7.57;60.45;100232.00;5092486;28;20043;-68
2023/12/13 00:20:54;;;;;;;15.40;2.63;;;;;;;-7.41;59.77;100209.44;5092555;28;20102;-69
2023/12/13 00:23:20;;;;;;;10.68;2.60;;;;;;;-7.65;60.89;100212.06;5092078;28;20116;-69
2023/12/13 00:25:45;;;;;;;16.55;2.08;;;;;;;-7.55;60.77;100217.25;5092557;28;20370;-68
2023/12/13 00:28:11;;;;;;;13.45;2.53;;;;;;;-7.55;60.20;100210.34;5091253;28;20070;-68
2023/12/13 00:30:37;;;;;;;14.93;2.75;;;;;;;-7.83;60.40;100178.25;5086690;28;20042;-67
2023/12/13 00:33:02;;;;;;;16.10;2.40;;;;;;;-7.51;60.69;100258.00;5072505;28;20028;-69
2023/12/13 00:35:28;;;;;;;18.00;2.58;;;;;;;-7.58;60.41;100214.66;5072175;28;20036;-68
2023/12/13 00:37:57;;;;;;;12.68;2.35;;;;;;;-7.52;60.59;100240.66;5086900;28;20032;-69
2023/12/13 00:40:23;;;;;;;18.17;2.20;;;;;;;-7.68;60.57;100204.28;5081539;28;20440;-68
2023/12/13 00:42:49;;;;;;;9.95;2.45;;;;;;;-7.64;60.51;100208.59;5072616;28;20044;-67
2023/12/13 00:45:14;;;;;;;12.20;2.80;;;;;;;-7.71;60.53;100214.69;5089752;28;20099;-69
2023/12/13 00:47:41;;;;;;;10.40;2.30;;;;;;;-7.69;60.87;100222.47;5074449;28;20458;-70
2023/12/13 00:50:08;;;;;;;12.00;2.40;;;;;;;-7.70;60.55;100225.91;5092130;28;20050;-67
2023/12/13 00:52:34;;;;;;;5.07;1.98;;;;;;;-7.65;60.22;100214.66;5092569;28;20119;-68
2023/12/13 00:55:01;;;;;;;10.00;2.20;;;;;;;-7.59;60.18;100246.72;5092072;28;20022;-69
2023/12/13 00:57:27;;;;;;;15.07;2.70;;;;;;;-7.73;60.33;100226.78;5091966;28;20127;-69
2023/12/13 00:59:53;;;;;;;13.38;2.33;;;;;;;-7.76;60.44;100270.97;5078872;28;20037;-68
2023/12/13 01:02:19;;;;;;;13.63;2.88;;;;;;;-7.61;59.93;100251.06;5071554;28;20039;-68
2023/12/13 01:04:45;;;;;;;13.70;1.70;;;;;;;-7.73;60.33;100262.31;5075201;28;20048;-69
2023/12/13 01:07:11;;;;;;;11.38;2.42;;;;;;;-7.82;60.55;100231.97;5075361;28;20105;-68
2023/12/13 01:09:36;;;;;;;7.63;2.00;;;;;;;-7.70;60.39;100221.59;5090860;28;20032;-69
2023/12/13 01:12:02;;;;;;;15.70;2.45;;;;;;;-7.77;60.34;100214.66;5095804;28;20059;-68
2023/12/13 01:14:28;;;;;;;18.45;3.08;;;;;;;-7.86;60.17;100207.69;5069628;28;20028;-69
2023/12/13 01:16:53;;;;;;;10.27;2.20;;;;;;;-7.90;60.59;100213.78;5075581;28;20066;-70
2023/12/13 01:19:19;;;;;;;12.57;2.38;;;;;;;-7.86;60.88;100219.84;5075470;28;20071;-65
2023/12/13 01:21:45;;;;;;;5.57;1.83;;;;;;;-7.96;60.63;100183.47;5075518;28;20033;-68
2023/12/13 01:24:10;;;;;;;8.18;2.42;;;;;;;-7.76;60.25;100237.19;5074546;28;20108;-68
2023/12/13 01:26:36;;;;;;;10.82;2.47;;;;;;;-7.84;60.52;100212.91;5075235;28;20057;-68
2023/12/13 01:29:02;;;;;;;5.88;2.55;;;;;;;-7.85;60.21;100201.63;5075918;28;20101;-69
2023/12/13 01:31:27;;;;;;;10.13;2.30;;;;;;;-7.85;60.43;100200.78;5075291;28;20036;-68
2023/12/13 01:33:53;;;;;;;9.20;2.70;;;;;;;-8.12;60.51;100168.72;5088663;28;20024;-68
2023/12/13 01:36:19;;;;;;;9.48;2.75;;;;;;;-7.95;60.33;100203.38;5095659;28;20035;-67
2023/12/13 01:38:44;;;;;;;9.18;2.15;;;;;;;-7.65;60.03;100219.88;5095103;28;20031;-68
2023/12/13 01:41:10;;;;;;;11.38;2.75;;;;;;;-7.83;60.42;100219.84;5095640;28;20078;-68
2023/12/13 01:43:35;;;;;;;8.35;1.92;;;;;;;-7.81;60.52;100231.13;5085329;28;20410;-69
2023/12/13 01:46:02;;;;;;;14.73;2.33;;;;;;;-7.87;60.53;100244.97;5074711;28;20036;-69
2023/12/13 01:48:29;;;;;;;6.82;1.30;;;;;;;-7.74;60.30;100247.59;5075184;28;20522;-67
2023/12/13 01:50:55;;;;;;;12.60;1.90;;;;;;;-7.99;60.05;100204.22;5075176;28;20024;-69
2023/12/13 01:53:25;;;;;;;13.15;2.35;;;;;;;-8.01;60.18;100205.09;5074751;28;20059;-67
2023/12/13 01:55:53;;;;;;;14.38;2.90;;;;;;;-8.01;60.20;100231.09;5074720;28;20145;-66
2023/12/13 01:58:19;;;;;;;12.63;2.95;;;;;;;-8.42;60.65;100180.78;5086924;28;20028;-69
2023/12/13 02:00:45;;;;;;;14.70;2.88;;;;;;;-8.15;60.33;100223.25;5077894;28;20039;-69
2023/12/13 02:03:12;;;;;;;13.07;2.60;;;;;;;-8.24;61.06;100219.75;5074492;28;20047;-68
2023/12/13 02:05:39;;;;;;;10.18;2.05;;;;;;;-8.24;61.37;100204.16;5073767;28;20024;-69
2023/12/13 02:08:05;;;;;;;9.50;2.47;;;;;;;-8.07;60.60;100205.94;5076010;28;20096;-66
2023/12/13 02:10:30;;;;;;;11.52;2.72;;;;;;;-8.10;60.59;100227.59;5094675;28;20115;-69
2023/12/13 02:12:56;;;;;;;7.13;2.60;;;;;;;-8.24;60.82;100216.31;5089276;28;20443;-67
2023/12/13 02:15:23;;;;;;;18.80;2.75;;;;;;;-8.22;60.39;100227.56;5073997;28;20077;-67
2023/12/13 02:17:53;;;;;;;15.68;2.75;;;;;;;-8.25;60.52;100249.19;5074914;28;20063;-67
2023/12/13 02:20:20;;;;;;;11.52;2.85;;;;;;;-8.27;60.98;100226.69;5075001;28;20366;-68
2023/12/13 02:22:46;;;;;;;6.60;1.88;;;;;;;-8.22;61.01;100218.03;5074153;28;20044;-68
2023/12/13 02:25:21;;;;;;;9.00;1.65;;;;;;;-8.22;60.01;100225.81;5087362;28;20036;-69
2023/12/13 02:27:47;;;;;;;12.48;2.50;;;;;;;-8.21;60.39;100261.34;5090644;28;20064;-68
2023/12/13 02:30:13;;;;;;;14.93;1.77;;;;;;;-8.28;60.87;100237.94;5094609;28;20074;-68
2023/12/13 02:32:39;;;;;;;6.60;1.45;;;;;;;-8.24;60.55;100239.69;5093189;28;20430;-69
2023/12/13 02:35:05;;;;;;;12.32;2.97;;;;;;;-8.36;60.49;100225.78;5094098;28;20434;-68
2023/12/13 02:37:31;;;;;;;6.93;1.88;;;;;;;-8.31;60.69;100251.78;5093759;28;20351;-69
2023/12/13 02:39:58;;;;;;;8.35;2.22;;;;;;;-8.40;60.66;100213.66;5094438;28;20028;-67
2023/12/13 02:42:25;;;;;;;3.38;1.67;;;;;;;-8.24;60.24;100235.34;5088962;28;20024;-67
2023/12/13 02:44:51;;;;;;;10.93;3.17;;;;;;;-8.37;60.97;100228.41;5073840;28;20372;-68
2023/12/13 02:47:16;;;;;;;8.85;2.00;;;;;;;-8.30;60.32;100237.09;5074170;28;20154;-69
2023/12/13 02:49:42;;;;;;;17.00;2.03;;;;;;;-8.39;60.73;100256.94;5086925;28;20171;-68
2023/12/13 02:52:08;;;;;;;10.32;2.15;;;;;;;-8.37;60.11;100237.03;5094356;28;20060;-67
2023/12/13 02:54:33;;;;;;;15.50;2.13;;;;;;;-8.39;60.58;100237.91;5093685;28;20024;-68
2023/12/13 02:56:59;;;;;;;8.23;1.88;;;;;;;-8.37;59.99;100257.81;5090158;28;20478;-68
2023/12/13 02:59:24;;;;;;;11.85;2.55;;;;;;;-8.51;60.39;100250.00;5072396;28;20028;-68
2023/12/13 03:01:50;;;;;;;11.07;1.85;;;;;;;-8.48;59.78;100236.16;5073662;28;20115;-68
2023/12/13 03:04:15;;;;;;;9.25;2.35;;;;;;;-8.49;60.00;100262.13;5073321;28;20124;-69
2023/12/13 03:06:41;;;;;;;6.90;1.85;;;;;;;-8.54;60.04;100267.31;5073436;28;20115;-68
2023/12/13 03:09:06;;;;;;;12.25;2.03;;;;;;;-8.59;60.10;100254.31;5085013;28;20027;-68
2023/12/13 03:11:32;;;;;;;7.60;1.80;;;;;;;-8.66;60.74;100256.00;5091629;28;20507;-68
2023/12/13 03:13:57;;;;;;;18.20;2.50;;;;;;;-8.61;59.57;100231.78;5073288;28;20028;-67
2023/12/13 03:16:24;;;;;;;7.03;1.45;;;;;;;-8.58;59.67;100256.03;5082141;28;20031;-67
2023/12/13 03:18:50;;;;;;;15.30;1.88;;;;;;;-8.75;60.07;100257.69;5093287;28;20089;-68
2023/12/13 03:21:15;;;;;;;8.73;1.70;;;;;;;-8.73;60.28;100246.47;5092433;28;20032;-67
2023/12/13 03:23:41;;;;;;;4.80;1.20;;;;;;;-8.95;59.95;100198.75;5079193;28;20097;-70
2023/12/13 03:26:06;;;;;;;8.45;1.70;;;;;;;-8.74;59.93;100255.09;5073567;28;20024;-68
2023/12/13 03:28:32;;;;;;;14.90;1.92;;;;;;;-8.90;60.45;100243.78;5092110;28;20040;-68
2023/12/13 03:30:58;;;;;;;12.63;2.17;;;;;;;-8.91;60.58;100244.63;5092962;28;20039;-66
2023/12/13 03:33:23;;;;;;;8.95;1.75;;;;;;;-8.80;60.02;100268.03;5093422;28;20394;-68
2023/12/13 03:35:49;;;;;;;12.00;1.83;;;;;;;-8.85;59.76;100268.00;5092702;28;20070;-69
2023/12/13 03:38:15;;;;;;;10.07;1.70;;;;;;;-8.91;60.22;100247.22;5093052;28;20053;-70
2023/12/13 03:40:40;;;;;;;11.25;2.15;;;;;;;-9.03;59.78;100240.25;5088824;28;20103;-70
2023/12/13 03:43:06;;;;;;;7.22;1.88;;;;;;;-9.02;60.15;100234.19;5072595;28;20041;-68
2023/12/13 03:45:31;;;;;;;3.53;0.95;;;;;;;-8.82;60.21;100249.88;5073076;28;20032;-68
2023/12/13 03:47:57;;;;;;;12.45;2.03;;;;;;;-8.78;59.48;100260.25;5071810;28;20032;-68
2023/12/13 03:50:23;;;;;;;9.75;2.20;;;;;;;-8.86;59.49;100258.50;5072757;28;20025;-68
2023/12/13 03:52:48;;;;;;;6.93;1.80;;;;;;;-8.99;59.56;100243.69;5072715;28;20033;-69
2023/12/13 03:55:14;;;;;;;4.40;1.42;;;;;;;-8.75;59.12;100242.97;5074151;28;20111;-69
2023/12/13 03:57:40;;;;;;;13.48;2.50;;;;;;;-8.90;59.61;100258.47;5092568;28;20032;-69
2023/12/13 04:00:06;;;;;;;11.00;2.03;;;;;;;-8.97;59.64;100248.06;5092265;28;20039;-68
2023/12/13 04:02:32;;;;;;;10.10;2.35;;;;;;;-8.96;59.85;100270.53;5093021;28;20031;-68
2023/12/13 04:04:58;;;;;;;9.00;1.77;;;;;;;-8.80;59.06;100271.50;5090458;28;20039;-68
2023/12/13 04:07:23;;;;;;;9.35;2.67;;;;;;;-8.87;59.45;100255.88;5071995;28;20367;-69
2023/12/13 04:09:49;;;;;;;6.03;1.83;;;;;;;-8.92;59.25;100250.69;5073450;28;20444;-69
2023/12/13 04:12:16;;;;;;;5.95;1.65;;;;;;;-8.86;59.09;100271.47;5091838;28;20032;-68
2023/12/13 04:14:41;;;;;;;10.27;2.33;;;;;;;-9.02;59.04;100241.09;5092764;28;20020;-68
2023/12/13 04:17:07;;;;;;;10.70;1.75;;;;;;;-8.91;59.08;100242.03;5092433;28;20031;-68
2023/12/13 04:19:33;;;;;;;13.25;2.30;;;;;;;-9.07;58.33;100202.13;5092194;28;20032;-68
2023/12/13 04:21:59;;;;;;;13.02;1.85;;;;;;;-8.90;58.86;100259.34;5092634;28;20059;-68
2023/12/13 04:24:24;;;;;;;10.20;1.98;;;;;;;-8.85;58.51;100260.22;5091317;28;20075;-68
2023/12/13 04:26:50;;;;;;;12.02;2.10;;;;;;;-8.83;57.86;100271.50;5092179;28;20051;-69
2023/12/13 04:29:16;;;;;;;16.88;2.38;;;;;;;-9.06;58.56;100273.91;5090133;28;20055;-67
2023/12/13 04:31:42;;;;;;;6.90;3.10;;;;;;;-9.12;58.84;100250.53;5074821;28;20040;-68
2023/12/13 04:34:08;;;;;;;9.80;1.95;;;;;;;-9.15;59.24;100256.59;5071785;28;20103;-69
2023/12/13 04:36:33;;;;;;;11.63;2.20;;;;;;;-8.96;58.80;100261.88;5071798;28;20039;-69
2023/12/13 04:38:59;;;;;;;9.30;1.80;;;;;;;-9.14;59.20;100281.66;5074905;28;20108;-69
2023/12/13 04:41:25;;;;;;;9.30;1.85;;;;;;;-9.45;59.83;100216.59;5075935;28;20367;-70
2023/12/13 04:43:50;;;;;;;8.55;1.45;;;;;;;-8.99;59.56;100265.34;5075312;28;20032;-69
2023/12/13 04:46:16;;;;;;;12.18;1.92;;;;;;;-9.13;59.64;100265.25;5075784;28;20072;-70
2023/12/13 04:48:42;;;;;;;13.68;1.90;;;;;;;-9.11;59.64;100276.50;5074755;28;20036;-68
2023/12/13 04:51:07;;;;;;;13.10;1.65;;;;;;;-9.03;59.09;100254.91;5074558;28;20032;-70
2023/12/13 04:53:33;;;;;;;4.20;0.85;;;;;;;-8.96;58.78;100264.47;5074620;28;20055;-68
2023/12/13 04:55:58;;;;;;;13.65;2.40;;;;;;;-9.20;59.23;100286.78;5077065;28;20441;-69
2023/12/13 04:58:24;;;;;;;11.40;2.20;;;;;;;-9.26;59.71;100303.19;5075201;28;20414;-69
2023/12/13 05:00:49;;;;;;;12.57;1.85;;;;;;;-9.29;60.12;100281.53;5074210;28;20354;-68
2023/12/13 05:03:15;;;;;;;10.60;2.47;;;;;;;-9.28;59.89;100272.91;5075740;28;20033;-70
2023/12/13 05:05:41;;;;;;;10.40;2.13;;;;;;;-9.25;59.71;100253.06;5083428;28;20024;-69
2023/12/13 05:08:12;;;;;;;9.25;2.10;;;;;;;-9.16;59.59;100283.38;5095996;28;20110;-69
2023/12/13 05:10:40;;;;;;;12.75;2.17;;;;;;;-9.18;59.62;100285.06;5093731;28;20024;-69
2023/12/13 05:13:07;;;;;;;7.97;1.83;;;;;;;-9.23;59.87;100271.22;5095450;28;20047;-68
2023/12/13 05:15:33;;;;;;;13.82;2.03;;;;;;;-9.26;60.03;100260.81;5095043;28;20036;-66
2023/12/13 05:17:58;;;;;;;16.77;2.05;;;;;;;-9.23;59.94;100266.91;5095699;28;20081;-68
2023/12/13 05:20:24;;;;;;;10.02;2.15;;;;;;;-9.16;59.83;100277.31;5093651;28;20366;-70
2023/12/13 05:22:49;;;;;;;12.15;2.38;;;;;;;-9.20;59.63;100280.75;5095767;28;20036;-69
2023/12/13 05:25:15;;;;;;;12.02;1.75;;;;;;;-9.25;60.07;100278.13;5095333;28;20031;-70
2023/12/13 05:27:42;;;;;;;11.00;1.80;;;;;;;-9.29;59.89;100294.50;5095093;28;20040;-69
2023/12/13 05:30:09;;;;;;;3.60;1.60;;;;;;;-9.21;59.67;100290.25;5095411;28;20066;-69
2023/12/13 05:32:34;;;;;;;7.22;1.30;;;;;;;-9.28;59.59;100283.28;5095642;28;20044;-66
2023/12/13 05:35:00;;;;;;;14.20;1.77;;;;;;;-9.33;59.54;100316.09;5093478;28;20032;-68
2023/12/13 05:37:26;;;;;;;9.43;1.55;;;;;;;-9.72;59.41;100258.72;5094930;28;20032;-69
2023/12/13 05:39:52;;;;;;;7.20;1.70;;;;;;;-9.49;59.85;100283.97;5095647;28;20043;-69
2023/12/13 05:42:17;;;;;;;17.88;2.40;;;;;;;-9.56;60.29;100298.59;5095304;28;20339;-68
2023/12/13 05:44:43;;;;;;;11.13;2.13;;;;;;;-9.57;60.41;100302.06;5093158;28;20366;-70
2023/12/13 05:47:08;;;;;;;9.30;1.80;;;;;;;-9.57;60.58;100286.50;5095005;28;20036;-70
2023/12/13 05:49:34;;;;;;;12.05;2.35;;;;;;;-9.52;60.52;100295.19;5093161;28;20404;-69
2023/12/13 05:52:00;;;;;;;13.23;2.00;;;;;;;-9.45;60.17;100291.78;5095155;28;20487;-69
2023/12/13 05:54:25;;;;;;;11.70;1.65;;;;;;;-9.29;59.92;100312.66;5094787;28;20025;-69
2023/12/13 05:56:51;;;;;;;9.80;2.58;;;;;;;-9.37;59.85;100297.91;5094855;28;20039;-70
2023/12/13 05:59:16;;;;;;;12.32;1.85;;;;;;;-9.34;60.01;100314.34;5094577;28;20036;-68
2023/12/13 06:01:42;;;;;;;13.10;2.47;;;;;;;-9.48;60.14;100315.09;5093928;28;20024;-70
2023/12/13 06:04:07;;;;;;;8.82;2.13;;;;;;;-9.54;60.67;100300.34;5085403;28;20070;-65
2023/12/13 06:06:33;;;;;;;8.05;1.55;;;;;;;-9.49;60.36;100310.75;5073840;28;20473;-69
2023/12/13 06:08:59;;;;;;;18.23;2.28;;;;;;;-9.47;60.70;100311.63;5074760;28;20567;-69
2023/12/13 06:11:24;;;;;;;7.47;1.90;;;;;;;-9.39;60.37;100312.59;5074306;28;20052;-70
2023/12/13 06:13:50;;;;;;;14.50;1.85;;;;;;;-9.38;60.44;100303.06;5075070;28;20071;-69
2023/12/13 06:16:15;;;;;;;18.15;2.50;;;;;;;-9.39;60.32;100301.34;5090702;28;20028;-69
2023/12/13 06:18:41;;;;;;;11.90;1.65;;;;;;;-9.58;60.52;100279.56;5089114;28;20020;-69
2023/12/13 06:21:07;;;;;;;17.40;1.75;;;;;;;-9.28;59.78;100306.63;5093905;28;20035;-68
2023/12/13 06:23:34;;;;;;;9.50;2.10;;;;;;;-9.46;59.93;100328.94;5093334;28;20035;-68
2023/12/13 06:25:59;;;;;;;9.50;2.53;;;;;;;-9.46;59.97;100321.16;5092109;28;20024;-70
2023/12/13 06:28:25;;;;;;;18.65;2.35;;;;;;;-9.49;59.90;100315.09;5092949;28;20782;-62
2023/12/13 06:30:50;;;;;;;5.72;1.33;;;;;;;-9.48;59.89;100296.94;5093610;28;20032;-65
2023/12/13 06:33:18;;;;;;;9.95;1.95;;;;;;;-9.51;60.14;100317.66;5092619;28;20447;-62
2023/12/13 06:35:44;;;;;;;7.57;1.52;;;;;;;-9.41;59.80;100324.66;5074064;28;20032;-64
2023/12/13 06:38:10;;;;;;;18.73;2.42;;;;;;;-9.37;59.45;100316.06;5074218;28;20024;-65
2023/12/13 06:40:35;;;;;;;8.52;1.55;;;;;;;-9.38;60.09;100313.44;5104121;28;20027;-59
2023/12/13 06:43:01;;;;;;;14.48;1.25;;;;;;;-9.54;59.59;100245.91;5114175;28;20024;-63
2023/12/13 06:45:27;;;;;;;11.68;2.28;;;;;;;-9.34;59.05;100299.66;5113396;28;20288;-60
2023/12/13 06:47:52;;;;;;;14.65;2.72;;;;;;;-9.41;59.18;100303.91;5105948;28;20035;-60
2023/12/13 06:50:19;;;;;;;11.82;2.38;;;;;;;-9.34;58.82;100342.88;5092176;28;20354;-59
2023/12/13 06:52:47;;;;;;;10.60;1.98;;;;;;;-9.73;58.71;100278.56;5085655;28;20039;-65
2023/12/13 06:55:13;;;;;;;14.10;1.80;;;;;;;-9.40;58.75;100338.50;5085847;28;20439;-66
2023/12/13 06:57:38;;;;;;;24.10;2.28;;;;;;;-9.54;59.44;100328.00;5092432;28;20094;-65
2023/12/13 07:00:05;;;;;;;13.50;2.30;;;;;;;-9.41;59.34;100324.66;5088369;28;20036;-65
2023/12/13 07:02:31;;;;;;;20.42;2.65;;;;;;;-9.32;58.66;100331.66;5088223;28;20029;-66
2023/12/13 07:04:57;;;;;;;13.98;2.33;;;;;;;-9.37;58.38;100349.78;5080440;28;20089;-66
2023/12/13 07:07:22;;;;;;;15.95;2.20;;;;;;;-9.37;58.94;100331.63;5081466;28;20032;-65
2023/12/13 07:09:48;;;;;;;9.75;1.92;;;;;;;-9.32;58.48;100323.88;5082549;28;20132;-66
2023/12/13 07:12:14;;;;;;;8.30;1.60;;;;;;;-9.45;58.44;100265.00;5093274;28;20121;-66
2023/12/13 07:14:39;;;;;;;6.75;1.33;;;;;;;-9.23;58.23;100292.84;5091926;28;20020;-67
2023/12/13 07:17:05;;;;;;;20.30;2.65;;;;;;;-9.19;58.47;100330.03;5093328;28;20031;-66
2023/12/13 07:19:30;;;;;;;10.65;1.83;;;;;;;-9.12;58.38;100323.16;5075218;28;20055;-66
2023/12/13 07:21:56;;;;;;;8.85;2.08;;;;;;;-9.18;58.08;100341.28;5088239;28;20057;-64
2023/12/13 07:24:22;;;;;;;7.90;2.00;;;;;;;-9.25;58.08;100336.06;5092490;28;20324;-67
2023/12/13 07:26:48;;;;;;;13.43;2.55;;;;;;;-9.19;58.00;100319.66;5092671;28;20059;-67
2023/12/13 07:29:14;;;;;;;11.05;2.33;;;;;;;-9.24;58.64;100317.03;5092797;28;20040;-66
2023/12/13 07:31:40;;;;;;;17.90;2.42;;;;;;;-9.33;58.32;100314.34;5092213;28;20530;-64
2023/12/13 07:34:06;;;;;;;12.05;2.30;;;;;;;-9.19;58.27;100322.25;5093195;28;20028;-66
2023/12/13 07:36:31;;;;;;;14.40;2.35;;;;;;;-9.16;58.37;100347.34;5088435;28;20055;-67
2023/12/13 07:38:57;;;;;;;17.25;2.55;;;;;;;-9.11;57.95;100330.97;5092323;28;20118;-64
2023/12/13 07:41:23;;;;;;;16.08;2.38;;;;;;;-9.06;57.81;100319.75;5092284;28;20036;-66
2023/12/13 07:43:48;;;;;;;14.57;2.72;;;;;;;-9.10;58.10;100321.44;5093247;28;20036;-67
2023/12/13 07:46:14;;;;;;;14.25;2.55;;;;;;;-9.09;57.79;100331.84;5088376;28;20020;-66
2023/12/13 07:48:41;;;;;;;8.95;2.40;;;;;;;-9.13;57.15;100329.22;5091548;28;20408;-66
2023/12/13 07:51:07;;;;;;;10.70;2.65;;;;;;;-9.43;57.90;100313.41;5085682;28;20076;-63
2023/12/13 07:53:32;;;;;;;11.32;2.00;;;;;;;-9.23;57.46;100354.22;5072885;28;20470;-64
2023/12/13 07:55:58;;;;;;;14.80;2.80;;;;;;;-9.40;57.84;100326.41;5087419;28;20054;-66
2023/12/13 07:58:23;;;;;;;8.57;1.67;;;;;;;-9.29;57.45;100343.78;5092006;28;20056;-67
2023/12/13 08:00:49;;;;;;;14.40;1.98;;;;;;;-9.43;58.42;100331.56;5092033;28;20032;-67
2023/12/13 08:03:15;;;;;;;16.17;2.42;;;;;;;-9.38;57.55;100335.06;5092226;28;20446;-66
2023/12/13 08:05:40;;;;;;;7.93;2.10;;;;;;;-9.31;57.76;100342.91;5086676;28;20050;-67
2023/12/13 08:08:06;;;;;;;13.82;2.53;;;;;;;-9.34;57.97;100377.44;5092244;28;20032;-67
2023/12/13 08:10:31;;;;;;;20.75;2.97;;;;;;;-9.39;58.10;100335.94;5083198;28;20048;-66
2023/12/13 08:12:57;;;;;;;14.30;2.47;;;;;;;-9.34;58.30;100322.13;5071994;28;20046;-67
2023/12/13 08:15:22;;;;;;;14.88;2.83;;;;;;;-9.23;57.92;100323.09;5071908;28;20111;-67
2023/12/13 08:17:49;;;;;;;12.90;3.08;;;;;;;-9.20;57.52;100325.69;5072089;28;20085;-66
2023/12/13 08:20:14;;;;;;;11.57;3.22;;;;;;;-9.16;58.10;100326.59;5074941;28;20025;-67
2023/12/13 08:22:40;;;;;;;12.55;2.58;;;;;;;-9.16;57.72;100319.72;5092248;28;20081;-66
2023/12/13 08:25:06;;;;;;;17.17;3.65;;;;;;;-9.16;57.85;100329.19;5092238;28;20028;-65
2023/12/13 08:27:31;;;;;;;18.70;2.97;;;;;;;-9.06;57.76;100335.34;5076728;28;20173;-68
2023/12/13 08:29:57;;;;;;;7.90;1.80;;;;;;;-8.95;58.11;100344.06;5071528;28;20112;-66
2023/12/13 08:32:22;;;;;;;25.27;3.30;;;;;;;-9.07;57.16;100359.53;5070787;28;20058;-68
2023/12/13 08:34:49;;;;;;;14.25;2.65;;;;;;;-9.16;57.79;100335.25;5075456;28;20096;-66
2023/12/13 08:37:15;;;;;;;16.52;3.05;;;;;;;-9.05;57.09;100324.94;5090902;28;20040;-67
2023/12/13 08:39:41;;;;;;;11.90;2.95;;;;;;;-9.23;57.36;100321.38;5091428;28;20038;-65
2023/12/13 08:42:09;;;;;;;16.42;2.63;;;;;;;-8.96;56.82;100319.84;5082608;28;20028;-65
2023/12/13 08:44:34;;;;;;;9.52;3.13;;;;;;;-8.98;57.27;100346.63;5091137;28;20448;-66
2023/12/13 08:47:00;;;;;;;15.48;2.47;;;;;;;-9.00;57.45;100356.13;5086990;28;20050;-66
2023/12/13 08:49:26;;;;;;;23.67;3.25;;;;;;;-9.12;57.20;100317.97;5086988;28;20040;-65
2023/12/13 08:51:51;;;;;;;13.27;2.63;;;;;;;-9.05;57.80;100316.31;5071539;28;20029;-67
2023/12/13 08:54:17;;;;;;;17.70;2.22;;;;;;;-8.69;56.80;100327.78;5071449;28;20048;-65
2023/12/13 08:56:45;;;;;;;12.40;3.17;;;;;;;-8.65;56.72;100325.22;5086788;28;20035;-64
2023/12/13 08:59:10;;;;;;;18.50;3.03;;;;;;;-8.67;56.58;100318.31;5077030;28;20094;-66
2023/12/13 09:01:36;;;;;;;19.20;3.53;;;;;;;-8.66;56.99;100318.31;5094327;28;20035;-63
2023/12/13 09:04:02;;;;;;;12.30;2.80;;;;;;;-8.63;56.47;100319.19;5088531;28;20028;-65
2023/12/13 09:06:28;;;;;;;20.15;3.65;;;;;;;-8.68;56.77;100330.41;5103580;28;20054;-72
2023/12/13 09:08:54;;;;;;;18.33;2.78;;;;;;;-8.63;56.40;100337.34;5112070;28;20110;-71
2023/12/13 09:11:19;;;;;;;22.77;3.70;;;;;;;-8.66;56.60;100336.47;5097924;28;20035;-71
2023/12/13 09:13:45;;;;;;;17.42;2.88;;;;;;;-8.74;57.16;100325.19;5091793;28;20031;-71
2023/12/13 09:16:12;;;;;;;18.38;3.95;;;;;;;-8.88;56.21;100278.38;5091086;28;20032;-69
2023/12/13 09:18:42;;;;;;;22.70;3.00;;;;;;;-8.68;56.63;100321.75;5086971;28;20115;-67
2023/12/13 09:21:08;;;;;;;24.45;3.50;;;;;;;-8.64;56.50;100323.53;5091930;28;20055;-65
2023/12/13 09:23:36;;;;;;;16.75;4.22;;;;;;;-8.62;56.66;100321.78;5090343;28;20431;-71
2023/12/13 09:26:04;;;;;;;28.00;4.22;;;;;;;-8.54;56.33;100320.09;5085140;28;20128;-68
2023/12/13 09:28:30;;;;;;;13.43;2.90;;;;;;;-8.57;56.19;100314.00;5095427;28;20110;-73
2023/12/13 09:30:55;;;;;;;22.48;4.03;;;;;;;-8.47;56.43;100338.28;5096003;28;20032;-66
2023/12/13 09:33:21;;;;;;;12.55;2.47;;;;;;;-8.51;56.32;100332.25;5090451;28;20047;-65
2023/12/13 09:35:46;;;;;;;19.52;3.15;;;;;;;-8.56;56.78;100326.13;5081184;28;20036;-67
2023/12/13 09:38:12;;;;;;;14.43;3.00;;;;;;;-8.59;56.90;100319.22;5107022;28;20081;-63
2023/12/13 09:40:37;;;;;;;22.52;3.95;;;;;;;-8.66;56.78;100320.03;5093650;28;20028;-59
2023/12/13 09:43:03;;;;;;;12.82;2.67;;;;;;;-8.55;57.33;100349.53;5086257;28;20029;-68
2023/12/13 09:45:31;;;;;;;15.63;3.25;;;;;;;-8.90;56.99;100274.03;5078466;28;20431;-67
2023/12/13 09:47:57;;;;;;;8.73;1.75;;;;;;;-8.46;57.18;100335.69;5089367;28;20039;-65
2023/12/13 09:50:24;;;;;;;16.52;2.97;;;;;;;-8.65;56.49;100322.63;5074056;28;20024;-64
2023/12/13 09:52:50;;;;;;;27.00;4.65;;;;;;;-9.02;57.16;100305.94;5074067;28;20028;-65
2023/12/13 09:55:16;;;;;;;25.08;4.18;;;;;;;-8.88;57.06;100325.09;5073700;28;20035;-60
2023/12/13 09:57:42;;;;;;;16.23;3.78;;;;;;;-8.89;57.09;100327.66;5092875;28;20039;-64
2023/12/13 10:00:12;;;;;;;16.23;3.35;;;;;;;-8.90;57.03;100325.94;5089500;28;20028;-62
2023/12/13 10:02:37;;;;;;;14.75;2.92;;;;;;;-8.81;56.78;100321.69;5088175;28;20032;-66
2023/12/13 10:05:05;;;;;;;20.13;3.40;;;;;;;-8.98;57.48;100331.06;5074203;28;20402;-66
2023/12/13 10:07:30;;;;;;;21.73;3.38;;;;;;;-8.97;57.11;100319.81;5074268;28;20442;-67
2023/12/13 10:09:56;;;;;;;16.55;3.13;;;;;;;-8.87;57.48;100313.84;5074264;28;20083;-65
2023/12/13 10:12:22;;;;;;;25.05;3.50;;;;;;;-8.96;57.80;100287.81;5068941;28;20044;-69
2023/12/13 10:14:48;;;;;;;23.23;2.88;;;;;;;-8.54;57.11;100304.53;5074432;28;20359;-66
2023/12/13 10:17:13;;;;;;;19.27;3.45;;;;;;;-8.66;56.13;100315.72;5075288;28;20032;-66
2023/12/13 10:19:40;;;;;;;15.73;3.80;;;;;;;-8.70;56.46;100316.56;5094400;28;20412;-65
2023/12/13 10:22:06;;;;;;;18.05;3.13;;;;;;;-8.86;56.88;100317.31;5083045;28;20489;-66
2023/12/13 10:24:33;;;;;;;24.25;3.30;;;;;;;-8.90;56.92;100326.81;5075032;28;20067;-67
2023/12/13 10:26:59;;;;;;;22.15;3.83;;;;;;;-8.95;57.58;100323.28;5093286;28;20450;-64
2023/12/13 10:29:24;;;;;;;19.13;3.63;;;;;;;-9.04;57.97;100321.53;5094277;28;20036;-70
2023/12/13 10:31:50;;;;;;;23.05;4.05;;;;;;;-9.20;58.00;100289.38;5089935;28;20028;-71
2023/12/13 10:34:16;;;;;;;17.98;3.53;;;;;;;-8.80;57.29;100336.38;5082290;28;20352;-71
2023/12/13 10:36:43;;;;;;;15.63;3.80;;;;;;;-9.20;57.96;100275.56;5072997;28;20028;-71
2023/12/13 10:39:13;;;;;;;18.85;3.13;;;;;;;-8.88;58.41;100330.28;5075294;28;20193;-66
2023/12/13 10:41:39;;;;;;;27.23;3.75;;;;;;;-8.78;57.83;100344.19;5087053;28;20028;-66
2023/12/13 10:44:07;;;;;;;19.77;3.45;;;;;;;-8.78;57.84;100314.75;5091277;28;20035;-71
2023/12/13 10:46:36;;;;;;;27.38;2.85;;;;;;;-8.82;57.97;100304.38;5073959;28;20027;-67
2023/12/13 10:49:05;;;;;;;16.17;2.80;;;;;;;-8.61;58.14;100336.50;5093033;28;20036;-67
2023/12/13 10:51:32;;;;;;;20.25;3.53;;;;;;;-8.57;58.07;100327.88;5093192;28;20028;-67
2023/12/13 10:53:58;;;;;;;19.45;3.55;;;;;;;-8.47;57.73;100327.88;5085924;28;20031;-65
2023/12/13 10:56:24;;;;;;;30.90;4.25;;;;;;;-8.46;57.08;100319.22;5079871;28;20057;-66
2023/12/13 10:58:52;;;;;;;27.58;3.75;;;;;;;-8.53;56.95;100326.19;5092350;28;20044;-66
2023/12/13 11:01:19;;;;;;;21.55;4.20;;;;;;;-8.68;56.93;100314.84;5089701;28;20028;-69
2023/12/13 11:03:52;;;;;;;25.30;4.43;;;;;;;-8.76;57.71;100337.28;5092719;28;20082;-66
2023/12/13 11:06:17;;;;;;;23.45;4.05;;;;;;;-8.73;57.15;100318.25;5092902;28;20369;-65
2023/12/13 11:08:44;;;;;;;16.48;3.10;;;;;;;-8.72;57.43;100359.81;5111675;28;20469;-65
2023/12/13 11:11:13;;;;;;;23.90;3.58;;;;;;;-8.68;57.14;100325.22;5111428;28;20039;-65
2023/12/13 11:13:50;;;;;;;26.17;3.70;;;;;;;-8.63;56.68;100332.16;5088402;28;20154;-64